sensor_id;sensor_type;location;lat;lon;timestamp;P1;durP1;ratioP1;P2;durP2;ratioP2
8887;SDS011;4480;52.370;9.748;2024-02-04T00:02:11;5.18;;;4.07;;
8887;SDS011;4480;52.370;9.748;2024-02-04T00:04:39;4.60;;;3.92;;
8887;SDS011;4480;52.370;9.748;2024-02-04T00:07:06;8.70;;;4.00;;
8887;SDS011;4480;52.370;9.748;2024-02-04T00:09:32;5.53;;;4.20;;
8887;SDS011;4480;52.370;9.748;2024-02-04T00:12:00;5.72;;;4.03;;
8887;SDS011;4480;52.370;9.748;2024-02-04T00:14:28;7.82;;;4.25;;
8887;SDS011;4480;52.370;9.748;2024-02-04T00:16:55;6.07;;;3.53;;
8887;SDS011;4480;52.370;9.748;2024-02-04T00:19:22;8.20;;;4.10;;
8887;SDS011;4480;52.370;9.748;2024-02-04T00:21:49;7.72;;;4.35;;
8887;SDS011;4480;52.370;9.748;2024-02-04T00:24:15;5.65;;;4.68;;
8887;SDS011;4480;52.370;9.748;2024-02-04T00:26:43;7.72;;;4.47;;
8887;SDS011;4480;52.370;9.748;2024-02-04T00:29:11;10.32;;;5.05;;
8887;SDS011;4480;52.370;9.748;2024-02-04T00:31:38;5.03;;;4.53;;
8887;SDS011;4480;52.370;9.748;2024-02-04T00:34:04;7.00;;;5.00;;
8887;SDS011;4480;52.370;9.748;2024-02-04T00:36:31;10.15;;;5.32;;
8887;SDS011;4480;52.370;9.748;2024-02-04T00:38:58;9.35;;;5.35;;
8887;SDS011;4480;52.370;9.748;2024-02-04T00:41:24;8.57;;;5.50;;
8887;SDS011;4480;52.370;9.748;2024-02-04T00:43:51;6.05;;;4.97;;
8887;SDS011;4480;52.370;9.748;2024-02-04T00:46:19;5.53;;;4.90;;
8887;SDS011;4480;52.370;9.748;2024-02-04T00:48:46;8.45;;;5.57;;
8887;SDS011;4480;52.370;9.748;2024-02-04T00:51:13;7.55;;;5.53;;
8887;SDS011;4480;52.370;9.748;2024-02-04T00:53:42;6.65;;;5.10;;
8887;SDS011;4480;52.370;9.748;2024-02-04T00:56:08;8.30;;;5.35;;
8887;SDS011;4480;52.370;9.748;2024-02-04T00:58:36;9.00;;;5.60;;
8887;SDS011;4480;52.370;9.748;2024-02-04T01:01:03;8.98;;;6.40;;
8887;SDS011;4480;52.370;9.748;2024-02-04T01:03:31;8.02;;;5.88;;
8887;SDS011;4480;52.370;9.748;2024-02-04T01:05:58;7.93;;;5.93;;
8887;SDS011;4480;52.370;9.748;2024-02-04T01:08:25;8.68;;;7.05;;
8887;SDS011;4480;52.370;9.748;2024-02-04T01:10:52;8.20;;;6.18;;
8887;SDS011;4480;52.370;9.748;2024-02-04T01:13:19;15.23;;;6.53;;
8887;SDS011;4480;52.370;9.748;2024-02-04T01:15:45;8.85;;;6.35;;
8887;SDS011;4480;52.370;9.748;2024-02-04T01:18:12;11.15;;;5.75;;
8887;SDS011;4480;52.370;9.748;2024-02-04T01:20:40;7.88;;;6.10;;
8887;SDS011;4480;52.370;9.748;2024-02-04T01:23:07;9.75;;;7.13;;
8887;SDS011;4480;52.370;9.748;2024-02-04T01:25:33;6.85;;;5.60;;
8887;SDS011;4480;52.370;9.748;2024-02-04T01:28:00;9.45;;;6.20;;
8887;SDS011;4480;52.370;9.748;2024-02-04T01:30:27;9.30;;;5.85;;
8887;SDS011;4480;52.370;9.748;2024-02-04T01:32:55;6.93;;;5.13;;
8887;SDS011;4480;52.370;9.748;2024-02-04T01:35:22;7.20;;;5.68;;
8887;SDS011;4480;52.370;9.748;2024-02-04T01:37:50;6.63;;;5.68;;
8887;SDS011;4480;52.370;9.748;2024-02-04T01:40:17;16.15;;;6.35;;
8887;SDS011;4480;52.370;9.748;2024-02-04T01:42:43;13.25;;;6.35;;
8887;SDS011;4480;52.370;9.748;2024-02-04T01:45:10;9.55;;;6.55;;
8887;SDS011;4480;52.370;9.748;2024-02-04T01:47:37;11.00;;;7.05;;
8887;SDS011;4480;52.370;9.748;2024-02-04T01:50:04;10.90;;;7.50;;
8887;SDS011;4480;52.370;9.748;2024-02-04T01:52:32;10.65;;;6.95;;
8887;SDS011;4480;52.370;9.748;2024-02-04T01:55:03;12.02;;;7.50;;
8887;SDS011;4480;52.370;9.748;2024-02-04T01:57:31;11.82;;;7.43;;
8887;SDS011;4480;52.370;9.748;2024-02-04T01:59:59;12.13;;;7.85;;
8887;SDS011;4480;52.370;9.748;2024-02-04T02:02:27;12.07;;;7.30;;
8887;SDS011;4480;52.370;9.748;2024-02-04T02:04:54;14.05;;;8.60;;
8887;SDS011;4480;52.370;9.748;2024-02-04T02:07:21;11.75;;;8.65;;
8887;SDS011;4480;52.370;9.748;2024-02-04T02:09:49;12.63;;;8.23;;
8887;SDS011;4480;52.370;9.748;2024-02-04T02:12:18;12.82;;;8.18;;
8887;SDS011;4480;52.370;9.748;2024-02-04T02:14:50;14.48;;;8.23;;
8887;SDS011;4480;52.370;9.748;2024-02-04T02:17:24;9.07;;;7.45;;
8887;SDS011;4480;52.370;9.748;2024-02-04T02:19:59;10.88;;;7.82;;
8887;SDS011;4480;52.370;9.748;2024-02-04T02:22:35;11.52;;;8.10;;
8887;SDS011;4480;52.370;9.748;2024-02-04T02:25:11;13.07;;;7.90;;
8887;SDS011;4480;52.370;9.748;2024-02-04T02:27:45;13.43;;;8.25;;
8887;SDS011;4480;52.370;9.748;2024-02-04T02:30:13;10.15;;;7.85;;
8887;SDS011;4480;52.370;9.748;2024-02-04T02:32:40;12.40;;;8.90;;
8887;SDS011;4480;52.370;9.748;2024-02-04T02:35:07;10.60;;;8.45;;
8887;SDS011;4480;52.370;9.748;2024-02-04T02:37:36;13.38;;;8.63;;
8887;SDS011;4480;52.370;9.748;2024-02-04T02:40:12;15.27;;;8.63;;
8887;SDS011;4480;52.370;9.748;2024-02-04T02:42:46;11.13;;;7.97;;
8887;SDS011;4480;52.370;9.748;2024-02-04T02:45:15;12.60;;;7.63;;
8887;SDS011;4480;52.370;9.748;2024-02-04T02:47:42;11.65;;;8.35;;
8887;SDS011;4480;52.370;9.748;2024-02-04T02:50:12;12.77;;;8.15;;
8887;SDS011;4480;52.370;9.748;2024-02-04T02:52:39;12.30;;;8.43;;
8887;SDS011;4480;52.370;9.748;2024-02-04T02:55:06;12.80;;;8.02;;
8887;SDS011;4480;52.370;9.748;2024-02-04T02:57:34;13.02;;;7.90;;
8887;SDS011;4480;52.370;9.748;2024-02-04T03:00:01;14.82;;;7.55;;
8887;SDS011;4480;52.370;9.748;2024-02-04T03:02:30;11.98;;;8.10;;
8887;SDS011;4480;52.370;9.748;2024-02-04T03:04:57;16.30;;;10.18;;
8887;SDS011;4480;52.370;9.748;2024-02-04T03:07:24;11.80;;;6.80;;
8887;SDS011;4480;52.370;9.748;2024-02-04T03:09:52;10.18;;;7.80;;
8887;SDS011;4480;52.370;9.748;2024-02-04T03:12:19;11.02;;;8.00;;
8887;SDS011;4480;52.370;9.748;2024-02-04T03:14:47;12.27;;;8.25;;
8887;SDS011;4480;52.370;9.748;2024-02-04T03:17:13;11.07;;;7.40;;
8887;SDS011;4480;52.370;9.748;2024-02-04T03:19:40;13.38;;;7.88;;
8887;SDS011;4480;52.370;9.748;2024-02-04T03:22:08;12.50;;;9.50;;
8887;SDS011;4480;52.370;9.748;2024-02-04T03:24:35;14.73;;;8.77;;
8887;SDS011;4480;52.370;9.748;2024-02-04T03:27:01;11.13;;;7.82;;
8887;SDS011;4480;52.370;9.748;2024-02-04T03:29:29;9.45;;;8.05;;
8887;SDS011;4480;52.370;9.748;2024-02-04T03:31:57;11.35;;;7.75;;
8887;SDS011;4480;52.370;9.748;2024-02-04T03:34:23;11.23;;;8.25;;
8887;SDS011;4480;52.370;9.748;2024-02-04T03:36:50;11.82;;;8.50;;
8887;SDS011;4480;52.370;9.748;2024-02-04T03:39:17;10.52;;;7.82;;
8887;SDS011;4480;52.370;9.748;2024-02-04T03:41:44;10.68;;;7.60;;
8887;SDS011;4480;52.370;9.748;2024-02-04T03:44:10;9.35;;;7.07;;
8887;SDS011;4480;52.370;9.748;2024-02-04T03:46:37;9.65;;;7.43;;
8887;SDS011;4480;52.370;9.748;2024-02-04T03:49:06;10.90;;;7.75;;
8887;SDS011;4480;52.370;9.748;2024-02-04T03:51:33;8.25;;;5.75;;
8887;SDS011;4480;52.370;9.748;2024-02-04T03:54:00;9.48;;;7.55;;
8887;SDS011;4480;52.370;9.748;2024-02-04T03:56:27;13.00;;;7.70;;
8887;SDS011;4480;52.370;9.748;2024-02-04T03:58:53;12.35;;;6.57;;
8887;SDS011;4480;52.370;9.748;2024-02-04T04:01:20;14.40;;;7.70;;
8887;SDS011;4480;52.370;9.748;2024-02-04T04:03:47;10.00;;;7.45;;
8887;SDS011;4480;52.370;9.748;2024-02-04T04:06:15;12.73;;;7.72;;
8887;SDS011;4480;52.370;9.748;2024-02-04T04:08:42;13.43;;;8.50;;
8887;SDS011;4480;52.370;9.748;2024-02-04T04:13:05;10.50;;;7.10;;
8887;SDS011;4480;52.370;9.748;2024-02-04T04:15:32;12.32;;;7.07;;
8887;SDS011;4480;52.370;9.748;2024-02-04T04:17:59;12.50;;;7.30;;
8887;SDS011;4480;52.370;9.748;2024-02-04T04:20:25;11.20;;;6.40;;
8887;SDS011;4480;52.370;9.748;2024-02-04T04:22:52;11.60;;;7.38;;
8887;SDS011;4480;52.370;9.748;2024-02-04T04:25:19;12.38;;;6.72;;
8887;SDS011;4480;52.370;9.748;2024-02-04T04:27:46;12.90;;;6.85;;
8887;SDS011;4480;52.370;9.748;2024-02-04T04:30:14;11.68;;;6.95;;
8887;SDS011;4480;52.370;9.748;2024-02-04T04:32:41;10.35;;;7.55;;
8887;SDS011;4480;52.370;9.748;2024-02-04T04:35:07;7.95;;;6.78;;
8887;SDS011;4480;52.370;9.748;2024-02-04T04:37:34;10.20;;;7.20;;
8887;SDS011;4480;52.370;9.748;2024-02-04T04:40:01;10.57;;;6.05;;
8887;SDS011;4480;52.370;9.748;2024-02-04T04:42:28;11.45;;;7.05;;
8887;SDS011;4480;52.370;9.748;2024-02-04T04:44:54;10.10;;;7.40;;
8887;SDS011;4480;52.370;9.748;2024-02-04T04:47:22;10.90;;;7.43;;
8887;SDS011;4480;52.370;9.748;2024-02-04T04:49:49;12.25;;;7.55;;
8887;SDS011;4480;52.370;9.748;2024-02-04T04:52:16;11.45;;;7.78;;
8887;SDS011;4480;52.370;9.748;2024-02-04T04:54:43;12.85;;;8.63;;
8887;SDS011;4480;52.370;9.748;2024-02-04T04:57:09;13.77;;;6.78;;
8887;SDS011;4480;52.370;9.748;2024-02-04T04:59:36;14.48;;;8.77;;
8887;SDS011;4480;52.370;9.748;2024-02-04T05:02:03;13.23;;;7.20;;
8887;SDS011;4480;52.370;9.748;2024-02-04T05:04:31;11.27;;;8.10;;
8887;SDS011;4480;52.370;9.748;2024-02-04T05:06:58;12.80;;;7.93;;
8887;SDS011;4480;52.370;9.748;2024-02-04T05:09:25;13.63;;;7.32;;
8887;SDS011;4480;52.370;9.748;2024-02-04T05:11:51;11.75;;;7.68;;
8887;SDS011;4480;52.370;9.748;2024-02-04T05:14:18;12.82;;;8.52;;
8887;SDS011;4480;52.370;9.748;2024-02-04T05:16:46;12.63;;;8.52;;
8887;SDS011;4480;52.370;9.748;2024-02-04T05:19:13;10.90;;;8.35;;
8887;SDS011;4480;52.370;9.748;2024-02-04T05:21:41;15.10;;;9.40;;
8887;SDS011;4480;52.370;9.748;2024-02-04T05:24:08;11.30;;;8.55;;
8887;SDS011;4480;52.370;9.748;2024-02-04T05:26:34;14.55;;;8.88;;
8887;SDS011;4480;52.370;9.748;2024-02-04T05:29:01;11.40;;;8.20;;
8887;SDS011;4480;52.370;9.748;2024-02-04T05:31:28;13.52;;;8.50;;
8887;SDS011;4480;52.370;9.748;2024-02-04T05:33:55;15.45;;;9.88;;
8887;SDS011;4480;52.370;9.748;2024-02-04T05:36:22;11.82;;;8.82;;
8887;SDS011;4480;52.370;9.748;2024-02-04T05:38:50;15.35;;;9.93;;
8887;SDS011;4480;52.370;9.748;2024-02-04T05:41:17;12.77;;;8.77;;
8887;SDS011;4480;52.370;9.748;2024-02-04T05:43:44;16.65;;;9.27;;
8887;SDS011;4480;52.370;9.748;2024-02-04T05:46:11;14.85;;;9.25;;
8887;SDS011;4480;52.370;9.748;2024-02-04T05:48:39;14.40;;;8.48;;
8887;SDS011;4480;52.370;9.748;2024-02-04T05:51:09;8.93;;;6.47;;
8887;SDS011;4480;52.370;9.748;2024-02-04T05:53:36;9.70;;;6.38;;
8887;SDS011;4480;52.370;9.748;2024-02-04T05:56:04;12.40;;;6.22;;
8887;SDS011;4480;52.370;9.748;2024-02-04T05:58:31;9.45;;;6.13;;
8887;SDS011;4480;52.370;9.748;2024-02-04T06:00:58;8.15;;;5.03;;
8887;SDS011;4480;52.370;9.748;2024-02-04T06:03:24;9.32;;;6.10;;
8887;SDS011;4480;52.370;9.748;2024-02-04T06:05:51;8.90;;;5.35;;
8887;SDS011;4480;52.370;9.748;2024-02-04T06:08:18;7.45;;;5.38;;
8887;SDS011;4480;52.370;9.748;2024-02-04T06:10:44;6.90;;;5.70;;
8887;SDS011;4480;52.370;9.748;2024-02-04T06:13:12;8.43;;;5.70;;
8887;SDS011;4480;52.370;9.748;2024-02-04T06:15:40;6.88;;;5.80;;
8887;SDS011;4480;52.370;9.748;2024-02-04T06:18:07;6.22;;;5.22;;
8887;SDS011;4480;52.370;9.748;2024-02-04T06:20:33;9.88;;;5.10;;
8887;SDS011;4480;52.370;9.748;2024-02-04T06:23:00;6.85;;;4.55;;
8887;SDS011;4480;52.370;9.748;2024-02-04T06:25:26;5.37;;;4.27;;
8887;SDS011;4480;52.370;9.748;2024-02-04T06:27:53;8.18;;;4.80;;
8887;SDS011;4480;52.370;9.748;2024-02-04T06:30:21;7.10;;;4.60;;
8887;SDS011;4480;52.370;9.748;2024-02-04T06:32:47;5.75;;;4.47;;
8887;SDS011;4480;52.370;9.748;2024-02-04T06:35:14;6.15;;;4.07;;
8887;SDS011;4480;52.370;9.748;2024-02-04T06:37:41;5.60;;;3.55;;
8887;SDS011;4480;52.370;9.748;2024-02-04T06:40:09;6.63;;;3.40;;
8887;SDS011;4480;52.370;9.748;2024-02-04T06:42:36;7.70;;;4.47;;
8887;SDS011;4480;52.370;9.748;2024-02-04T06:45:03;5.35;;;3.35;;
8887;SDS011;4480;52.370;9.748;2024-02-04T06:47:32;6.55;;;3.80;;
8887;SDS011;4480;52.370;9.748;2024-02-04T06:49:58;6.72;;;3.53;;
8887;SDS011;4480;52.370;9.748;2024-02-04T06:52:28;3.35;;;3.05;;
8887;SDS011;4480;52.370;9.748;2024-02-04T06:54:55;4.40;;;2.90;;
8887;SDS011;4480;52.370;9.748;2024-02-04T06:57:21;4.53;;;2.45;;
8887;SDS011;4480;52.370;9.748;2024-02-04T06:59:48;3.25;;;2.40;;
8887;SDS011;4480;52.370;9.748;2024-02-04T07:02:15;4.13;;;2.70;;
8887;SDS011;4480;52.370;9.748;2024-02-04T07:04:43;6.32;;;3.10;;
8887;SDS011;4480;52.370;9.748;2024-02-04T07:07:10;5.53;;;2.75;;
8887;SDS011;4480;52.370;9.748;2024-02-04T07:09:36;3.03;;;2.42;;
8887;SDS011;4480;52.370;9.748;2024-02-04T07:12:03;6.20;;;3.65;;
8887;SDS011;4480;52.370;9.748;2024-02-04T07:14:31;4.15;;;2.92;;
8887;SDS011;4480;52.370;9.748;2024-02-04T07:16:57;8.13;;;3.40;;
8887;SDS011;4480;52.370;9.748;2024-02-04T07:19:24;8.95;;;3.03;;
8887;SDS011;4480;52.370;9.748;2024-02-04T07:21:52;4.45;;;3.38;;
8887;SDS011;4480;52.370;9.748;2024-02-04T07:24:19;4.53;;;2.88;;
8887;SDS011;4480;52.370;9.748;2024-02-04T07:26:46;7.78;;;3.28;;
8887;SDS011;4480;52.370;9.748;2024-02-04T07:29:13;3.60;;;2.88;;
8887;SDS011;4480;52.370;9.748;2024-02-04T07:31:39;5.10;;;3.78;;
8887;SDS011;4480;52.370;9.748;2024-02-04T07:34:06;8.48;;;3.30;;
8887;SDS011;4480;52.370;9.748;2024-02-04T07:36:33;4.63;;;2.75;;
8887;SDS011;4480;52.370;9.748;2024-02-04T07:39:01;2.88;;;2.58;;
8887;SDS011;4480;52.370;9.748;2024-02-04T07:41:29;6.97;;;3.00;;
8887;SDS011;4480;52.370;9.748;2024-02-04T07:43:56;4.70;;;2.72;;
8887;SDS011;4480;52.370;9.748;2024-02-04T07:46:23;5.95;;;3.40;;
8887;SDS011;4480;52.370;9.748;2024-02-04T07:48:50;5.43;;;3.40;;
8887;SDS011;4480;52.370;9.748;2024-02-04T07:51:16;4.93;;;3.00;;
8887;SDS011;4480;52.370;9.748;2024-02-04T07:53:43;2.60;;;2.00;;
8887;SDS011;4480;52.370;9.748;2024-02-04T07:56:11;7.20;;;2.67;;
8887;SDS011;4480;52.370;9.748;2024-02-04T07:58:38;4.05;;;2.10;;
8887;SDS011;4480;52.370;9.748;2024-02-04T08:01:05;3.35;;;2.25;;
8887;SDS011;4480;52.370;9.748;2024-02-04T08:03:32;2.67;;;2.10;;
8887;SDS011;4480;52.370;9.748;2024-02-04T08:05:58;4.65;;;2.38;;
8887;SDS011;4480;52.370;9.748;2024-02-04T08:08:25;5.82;;;2.42;;
8887;SDS011;4480;52.370;9.748;2024-02-04T08:10:52;5.70;;;2.35;;
8887;SDS011;4480;52.370;9.748;2024-02-04T08:13:20;2.95;;;1.92;;
8887;SDS011;4480;52.370;9.748;2024-02-04T08:15:47;2.53;;;2.03;;
8887;SDS011;4480;52.370;9.748;2024-02-04T08:18:13;4.45;;;2.60;;
8887;SDS011;4480;52.370;9.748;2024-02-04T08:20:40;4.43;;;2.47;;
8887;SDS011;4480;52.370;9.748;2024-02-04T08:23:07;3.30;;;1.90;;
8887;SDS011;4480;52.370;9.748;2024-02-04T08:25:34;5.53;;;2.05;;
8887;SDS011;4480;52.370;9.748;2024-02-04T08:28:01;2.20;;;1.80;;
8887;SDS011;4480;52.370;9.748;2024-02-04T08:30:29;4.03;;;1.45;;
8887;SDS011;4480;52.370;9.748;2024-02-04T08:32:56;3.05;;;1.90;;
8887;SDS011;4480;52.370;9.748;2024-02-04T08:35:23;2.33;;;1.42;;
8887;SDS011;4480;52.370;9.748;2024-02-04T08:37:50;3.87;;;1.50;;
8887;SDS011;4480;52.370;9.748;2024-02-04T08:40:17;2.60;;;1.50;;
8887;SDS011;4480;52.370;9.748;2024-02-04T08:42:43;2.67;;;1.40;;
8887;SDS011;4480;52.370;9.748;2024-02-04T08:45:10;5.33;;;1.60;;
8887;SDS011;4480;52.370;9.748;2024-02-04T08:47:38;2.80;;;1.30;;
8887;SDS011;4480;52.370;9.748;2024-02-04T08:50:05;2.92;;;1.40;;
8887;SDS011;4480;52.370;9.748;2024-02-04T08:52:33;4.28;;;1.52;;
8887;SDS011;4480;52.370;9.748;2024-02-04T08:55:00;3.80;;;1.10;;
8887;SDS011;4480;52.370;9.748;2024-02-04T08:57:29;5.53;;;1.30;;
8887;SDS011;4480;52.370;9.748;2024-02-04T08:59:55;3.33;;;1.50;;
8887;SDS011;4480;52.370;9.748;2024-02-04T09:02:22;2.45;;;2.08;;
8887;SDS011;4480;52.370;9.748;2024-02-04T09:04:49;6.87;;;2.53;;
8887;SDS011;4480;52.370;9.748;2024-02-04T09:07:16;3.55;;;1.80;;
8887;SDS011;4480;52.370;9.748;2024-02-04T09:09:43;4.00;;;1.40;;
8887;SDS011;4480;52.370;9.748;2024-02-04T09:12:09;4.10;;;1.35;;
8887;SDS011;4480;52.370;9.748;2024-02-04T09:14:36;5.50;;;1.50;;
8887;SDS011;4480;52.370;9.748;2024-02-04T09:17:03;7.50;;;1.57;;
8887;SDS011;4480;52.370;9.748;2024-02-04T09:19:31;8.00;;;1.63;;
8887;SDS011;4480;52.370;9.748;2024-02-04T09:21:59;6.33;;;2.00;;
8887;SDS011;4480;52.370;9.748;2024-02-04T09:24:27;5.95;;;1.48;;
8887;SDS011;4480;52.370;9.748;2024-02-04T09:26:54;5.25;;;2.60;;
8887;SDS011;4480;52.370;9.748;2024-02-04T09:29:21;6.65;;;2.15;;
8887;SDS011;4480;52.370;9.748;2024-02-04T09:31:47;6.40;;;1.80;;
8887;SDS011;4480;52.370;9.748;2024-02-04T09:34:14;6.90;;;1.73;;
8887;SDS011;4480;52.370;9.748;2024-02-04T09:36:41;5.43;;;2.13;;
8887;SDS011;4480;52.370;9.748;2024-02-04T09:39:11;4.77;;;1.40;;
8887;SDS011;4480;52.370;9.748;2024-02-04T09:41:38;6.75;;;2.00;;
8887;SDS011;4480;52.370;9.748;2024-02-04T09:44:04;5.50;;;1.87;;
8887;SDS011;4480;52.370;9.748;2024-02-04T09:46:32;6.20;;;1.52;;
8887;SDS011;4480;52.370;9.748;2024-02-04T09:48:59;3.47;;;1.43;;
8887;SDS011;4480;52.370;9.748;2024-02-04T09:51:27;4.82;;;1.35;;
8887;SDS011;4480;52.370;9.748;2024-02-04T09:53:55;2.78;;;1.40;;
8887;SDS011;4480;52.370;9.748;2024-02-04T09:56:30;2.85;;;1.67;;
8887;SDS011;4480;52.370;9.748;2024-02-04T09:58:58;4.78;;;1.70;;
8887;SDS011;4480;52.370;9.748;2024-02-04T10:01:24;5.60;;;1.67;;
8887;SDS011;4480;52.370;9.748;2024-02-04T10:03:52;3.88;;;1.55;;
8887;SDS011;4480;52.370;9.748;2024-02-04T10:06:19;5.83;;;2.23;;
8887;SDS011;4480;52.370;9.748;2024-02-04T10:08:46;4.55;;;2.17;;
8887;SDS011;4480;52.370;9.748;2024-02-04T10:11:13;5.60;;;2.33;;
8887;SDS011;4480;52.370;9.748;2024-02-04T10:13:45;5.15;;;1.70;;
8887;SDS011;4480;52.370;9.748;2024-02-04T10:16:13;6.32;;;1.98;;
8887;SDS011;4480;52.370;9.748;2024-02-04T10:18:43;5.45;;;1.73;;
8887;SDS011;4480;52.370;9.748;2024-02-04T10:21:17;4.75;;;1.80;;
8887;SDS011;4480;52.370;9.748;2024-02-04T10:23:44;5.25;;;1.85;;
8887;SDS011;4480;52.370;9.748;2024-02-04T10:26:11;8.30;;;2.22;;
8887;SDS011;4480;52.370;9.748;2024-02-04T10:28:38;6.07;;;1.90;;
8887;SDS011;4480;52.370;9.748;2024-02-04T10:31:07;5.40;;;2.00;;
8887;SDS011;4480;52.370;9.748;2024-02-04T10:33:34;8.63;;;1.80;;
8887;SDS011;4480;52.370;9.748;2024-02-04T10:36:01;5.45;;;1.83;;
8887;SDS011;4480;52.370;9.748;2024-02-04T10:38:28;5.30;;;1.80;;
8887;SDS011;4480;52.370;9.748;2024-02-04T10:40:55;5.03;;;2.17;;
8887;SDS011;4480;52.370;9.748;2024-02-04T10:43:25;2.93;;;1.67;;
8887;SDS011;4480;52.370;9.748;2024-02-04T10:45:55;8.63;;;2.63;;
8887;SDS011;4480;52.370;9.748;2024-02-04T10:48:24;3.20;;;1.90;;
8887;SDS011;4480;52.370;9.748;2024-02-04T10:50:53;5.80;;;2.00;;
8887;SDS011;4480;52.370;9.748;2024-02-04T10:53:21;8.57;;;2.10;;
8887;SDS011;4480;52.370;9.748;2024-02-04T10:55:50;8.30;;;2.60;;
8887;SDS011;4480;52.370;9.748;2024-02-04T10:58:20;12.48;;;2.65;;
8887;SDS011;4480;52.370;9.748;2024-02-04T11:00:49;8.63;;;2.27;;
8887;SDS011;4480;52.370;9.748;2024-02-04T11:03:16;4.87;;;2.20;;
8887;SDS011;4480;52.370;9.748;2024-02-04T11:05:46;4.40;;;1.95;;
8887;SDS011;4480;52.370;9.748;2024-02-04T11:08:14;5.13;;;2.90;;
8887;SDS011;4480;52.370;9.748;2024-02-04T11:10:42;4.77;;;1.93;;
8887;SDS011;4480;52.370;9.748;2024-02-04T11:13:08;3.83;;;1.70;;
8887;SDS011;4480;52.370;9.748;2024-02-04T11:15:37;5.47;;;1.90;;
8887;SDS011;4480;52.370;9.748;2024-02-04T11:21:17;5.40;;;2.03;;
8887;SDS011;4480;52.370;9.748;2024-02-04T11:24:08;6.13;;;2.80;;
8887;SDS011;4480;52.370;9.748;2024-02-04T11:26:44;6.27;;;2.40;;
8887;SDS011;4480;52.370;9.748;2024-02-04T11:29:11;3.63;;;1.90;;
8887;SDS011;4480;52.370;9.748;2024-02-04T11:31:39;5.50;;;2.47;;
8887;SDS011;4480;52.370;9.748;2024-02-04T11:34:06;3.13;;;1.57;;
8887;SDS011;4480;52.370;9.748;2024-02-04T11:36:38;5.80;;;1.63;;
8887;SDS011;4480;52.370;9.748;2024-02-04T11:39:12;7.60;;;2.10;;
8887;SDS011;4480;52.370;9.748;2024-02-04T11:41:44;4.90;;;1.70;;
8887;SDS011;4480;52.370;9.748;2024-02-04T11:44:12;5.00;;;2.27;;
8887;SDS011;4480;52.370;9.748;2024-02-04T11:46:46;5.67;;;1.90;;
8887;SDS011;4480;52.370;9.748;2024-02-04T11:49:16;5.13;;;2.17;;
8887;SDS011;4480;52.370;9.748;2024-02-04T11:51:46;3.17;;;1.67;;
8887;SDS011;4480;52.370;9.748;2024-02-04T11:54:14;3.77;;;2.07;;
8887;SDS011;4480;52.370;9.748;2024-02-04T11:56:43;5.70;;;1.50;;
8887;SDS011;4480;52.370;9.748;2024-02-04T11:59:10;2.10;;;1.53;;
8887;SDS011;4480;52.370;9.748;2024-02-04T12:01:39;3.77;;;1.63;;
8887;SDS011;4480;52.370;9.748;2024-02-04T12:04:09;4.00;;;1.40;;
8887;SDS011;4480;52.370;9.748;2024-02-04T12:06:37;7.63;;;1.93;;
8887;SDS011;4480;52.370;9.748;2024-02-04T12:09:05;5.80;;;1.80;;
8887;SDS011;4480;52.370;9.748;2024-02-04T12:11:33;4.90;;;1.70;;
8887;SDS011;4480;52.370;9.748;2024-02-04T12:14:01;1.93;;;1.30;;
8887;SDS011;4480;52.370;9.748;2024-02-04T12:16:30;4.13;;;1.67;;
8887;SDS011;4480;52.370;9.748;2024-02-04T12:18:57;4.90;;;1.80;;
8887;SDS011;4480;52.370;9.748;2024-02-04T12:21:24;4.70;;;1.40;;
8887;SDS011;4480;52.370;9.748;2024-02-04T12:23:51;8.50;;;1.83;;
8887;SDS011;4480;52.370;9.748;2024-02-04T12:26:20;5.30;;;1.90;;
8887;SDS011;4480;52.370;9.748;2024-02-04T12:28:46;5.87;;;1.67;;
8887;SDS011;4480;52.370;9.748;2024-02-04T12:31:17;4.00;;;1.50;;
8887;SDS011;4480;52.370;9.748;2024-02-04T12:33:51;2.40;;;1.17;;
8887;SDS011;4480;52.370;9.748;2024-02-04T12:36:19;4.70;;;1.60;;
8887;SDS011;4480;52.370;9.748;2024-02-04T12:38:50;6.30;;;1.87;;
8887;SDS011;4480;52.370;9.748;2024-02-04T12:41:19;6.57;;;1.83;;
8887;SDS011;4480;52.370;9.748;2024-02-04T12:43:49;2.90;;;1.30;;
8887;SDS011;4480;52.370;9.748;2024-02-04T12:46:16;5.20;;;1.60;;
8887;SDS011;4480;52.370;9.748;2024-02-04T12:48:44;3.90;;;1.80;;
8887;SDS011;4480;52.370;9.748;2024-02-04T12:51:11;2.60;;;1.30;;
8887;SDS011;4480;52.370;9.748;2024-02-04T12:53:37;6.40;;;1.70;;
8887;SDS011;4480;52.370;9.748;2024-02-04T12:56:04;4.13;;;1.40;;
8887;SDS011;4480;52.370;9.748;2024-02-04T12:58:41;3.77;;;1.47;;
8887;SDS011;4480;52.370;9.748;2024-02-04T13:01:08;5.07;;;1.60;;
8887;SDS011;4480;52.370;9.748;2024-02-04T13:03:35;4.50;;;1.60;;
8887;SDS011;4480;52.370;9.748;2024-02-04T13:06:02;3.33;;;1.70;;
8887;SDS011;4480;52.370;9.748;2024-02-04T13:08:29;2.67;;;1.80;;
8887;SDS011;4480;52.370;9.748;2024-02-04T13:10:56;1.97;;;1.33;;
8887;SDS011;4480;52.370;9.748;2024-02-04T13:13:23;7.13;;;1.60;;
8887;SDS011;4480;52.370;9.748;2024-02-04T13:15:53;3.83;;;1.53;;
8887;SDS011;4480;52.370;9.748;2024-02-04T13:18:21;6.53;;;1.83;;
8887;SDS011;4480;52.370;9.748;2024-02-04T13:20:48;2.40;;;1.60;;
8887;SDS011;4480;52.370;9.748;2024-02-04T13:23:15;4.10;;;1.70;;
8887;SDS011;4480;52.370;9.748;2024-02-04T13:25:41;3.30;;;1.52;;
8887;SDS011;4480;52.370;9.748;2024-02-04T13:28:09;3.50;;;1.40;;
8887;SDS011;4480;52.370;9.748;2024-02-04T13:30:36;2.08;;;1.60;;
8887;SDS011;4480;52.370;9.748;2024-02-04T13:33:04;5.65;;;1.70;;
8887;SDS011;4480;52.370;9.748;2024-02-04T13:35:31;4.03;;;1.58;;
8887;SDS011;4480;52.370;9.748;2024-02-04T13:37:58;3.43;;;1.63;;
8887;SDS011;4480;52.370;9.748;2024-02-04T13:40:24;1.60;;;1.40;;
8887;SDS011;4480;52.370;9.748;2024-02-04T13:42:51;3.00;;;2.20;;
8887;SDS011;4480;52.370;9.748;2024-02-04T13:45:18;3.13;;;1.85;;
8887;SDS011;4480;52.370;9.748;2024-02-04T13:47:46;3.73;;;1.40;;
8887;SDS011;4480;52.370;9.748;2024-02-04T13:50:14;4.13;;;1.73;;
8887;SDS011;4480;52.370;9.748;2024-02-04T13:52:41;2.27;;;1.53;;
8887;SDS011;4480;52.370;9.748;2024-02-04T13:55:08;2.37;;;1.87;;
8887;SDS011;4480;52.370;9.748;2024-02-04T13:57:34;2.20;;;1.70;;
8887;SDS011;4480;52.370;9.748;2024-02-04T14:00:02;2.60;;;1.80;;
8887;SDS011;4480;52.370;9.748;2024-02-04T14:02:31;2.10;;;1.70;;
8887;SDS011;4480;52.370;9.748;2024-02-04T14:04:57;3.25;;;1.98;;
8887;SDS011;4480;52.370;9.748;2024-02-04T14:07:26;3.17;;;1.67;;
8887;SDS011;4480;52.370;9.748;2024-02-04T14:09:53;5.10;;;2.03;;
8887;SDS011;4480;52.370;9.748;2024-02-04T14:12:19;2.03;;;1.47;;
8887;SDS011;4480;52.370;9.748;2024-02-04T14:14:46;1.67;;;1.58;;
8887;SDS011;4480;52.370;9.748;2024-02-04T14:17:13;2.70;;;1.98;;
8887;SDS011;4480;52.370;9.748;2024-02-04T14:19:40;2.83;;;1.83;;
8887;SDS011;4480;52.370;9.748;2024-02-04T14:22:06;3.45;;;2.03;;
8887;SDS011;4480;52.370;9.748;2024-02-04T14:24:34;3.20;;;2.20;;
8887;SDS011;4480;52.370;9.748;2024-02-04T14:27:01;3.00;;;2.40;;
8887;SDS011;4480;52.370;9.748;2024-02-04T14:29:28;4.57;;;2.13;;
8887;SDS011;4480;52.370;9.748;2024-02-04T14:31:55;5.70;;;2.40;;
8887;SDS011;4480;52.370;9.748;2024-02-04T14:34:23;3.97;;;2.25;;
8887;SDS011;4480;52.370;9.748;2024-02-04T14:36:50;3.20;;;2.30;;
8887;SDS011;4480;52.370;9.748;2024-02-04T14:39:17;2.58;;;2.30;;
8887;SDS011;4480;52.370;9.748;2024-02-04T14:41:45;3.80;;;2.30;;
8887;SDS011;4480;52.370;9.748;2024-02-04T14:44:11;2.80;;;1.90;;
8887;SDS011;4480;52.370;9.748;2024-02-04T14:46:38;6.90;;;2.97;;
8887;SDS011;4480;52.370;9.748;2024-02-04T14:49:05;3.80;;;2.33;;
8887;SDS011;4480;52.370;9.748;2024-02-04T14:51:32;5.15;;;2.22;;
8887;SDS011;4480;52.370;9.748;2024-02-04T14:54:01;6.57;;;2.67;;
8887;SDS011;4480;52.370;9.748;2024-02-04T14:56:28;3.72;;;2.65;;
8887;SDS011;4480;52.370;9.748;2024-02-04T14:58:56;5.00;;;2.90;;
8887;SDS011;4480;52.370;9.748;2024-02-04T15:01:22;7.53;;;3.78;;
8887;SDS011;4480;52.370;9.748;2024-02-04T15:03:49;3.58;;;2.45;;
8887;SDS011;4480;52.370;9.748;2024-02-04T15:06:16;3.72;;;2.40;;
8887;SDS011;4480;52.370;9.748;2024-02-04T15:08:42;6.28;;;3.10;;
8887;SDS011;4480;52.370;9.748;2024-02-04T15:11:09;5.30;;;2.73;;
8887;SDS011;4480;52.370;9.748;2024-02-04T15:13:36;5.97;;;3.90;;
8887;SDS011;4480;52.370;9.748;2024-02-04T15:16:05;4.25;;;3.60;;
8887;SDS011;4480;52.370;9.748;2024-02-04T15:18:33;5.22;;;3.10;;
8887;SDS011;4480;52.370;9.748;2024-02-04T15:21:01;3.88;;;2.97;;